sensor_id;sensor_type;location;lat;lon;timestamp;P1;durP1;ratioP1;P2;durP2;ratioP2
14007;SDS011;61651;45.508;12.232;2023-02-02T00:02:52;70.17;;;45.70;;
14007;SDS011;61651;45.508;12.232;2023-02-02T00:05:53;71.70;;;43.93;;
14007;SDS011;61651;45.508;12.232;2023-02-02T00:08:57;70.93;;;45.87;;
14007;SDS011;61651;45.508;12.232;2023-02-02T00:12:00;72.53;;;44.17;;
14007;SDS011;61651;45.508;12.232;2023-02-02T00:15:04;70.87;;;46.10;;
14007;SDS011;61651;45.508;12.232;2023-02-02T00:18:06;66.80;;;45.83;;
14007;SDS011;61651;45.508;12.232;2023-02-02T00:21:08;70.10;;;46.00;;
14007;SDS011;61651;45.508;12.232;2023-02-02T00:24:11;74.07;;;47.20;;
14007;SDS011;61651;45.508;12.232;2023-02-02T00:27:14;81.00;;;46.77;;
14007;SDS011;61651;45.508;12.232;2023-02-02T00:30:18;76.17;;;43.60;;
14007;SDS011;61651;45.508;12.232;2023-02-02T00:33:20;65.67;;;44.53;;
14007;SDS011;61651;45.508;12.232;2023-02-02T00:36:22;68.93;;;45.87;;
14007;SDS011;61651;45.508;12.232;2023-02-02T00:39:24;71.47;;;46.77;;
14007;SDS011;61651;45.508;12.232;2023-02-02T00:42:26;73.30;;;45.70;;
14007;SDS011;61651;45.508;12.232;2023-02-02T00:45:30;71.63;;;47.23;;
14007;SDS011;61651;45.508;12.232;2023-02-02T00:48:32;77.73;;;47.33;;
14007;SDS011;61651;45.508;12.232;2023-02-02T00:51:34;78.70;;;50.10;;
14007;SDS011;61651;45.508;12.232;2023-02-02T00:54:37;76.10;;;47.20;;
14007;SDS011;61651;45.508;12.232;2023-02-02T00:57:39;80.80;;;46.27;;
14007;SDS011;61651;45.508;12.232;2023-02-02T01:00:44;75.37;;;47.97;;
14007;SDS011;61651;45.508;12.232;2023-02-02T01:03:46;71.27;;;46.47;;
14007;SDS011;61651;45.508;12.232;2023-02-02T01:06:48;77.27;;;47.17;;
14007;SDS011;61651;45.508;12.232;2023-02-02T01:09:50;73.43;;;46.90;;
14007;SDS011;61651;45.508;12.232;2023-02-02T01:12:52;70.97;;;44.40;;
14007;SDS011;61651;45.508;12.232;2023-02-02T01:15:56;68.43;;;45.47;;
14007;SDS011;61651;45.508;12.232;2023-02-02T01:18:58;74.57;;;47.33;;
14007;SDS011;61651;45.508;12.232;2023-02-02T01:22:00;76.63;;;46.70;;
14007;SDS011;61651;45.508;12.232;2023-02-02T01:25:02;72.87;;;45.43;;
14007;SDS011;61651;45.508;12.232;2023-02-02T01:28:05;71.93;;;45.43;;
14007;SDS011;61651;45.508;12.232;2023-02-02T01:31:09;74.63;;;46.77;;
14007;SDS011;61651;45.508;12.232;2023-02-02T01:34:12;70.70;;;44.33;;
14007;SDS011;61651;45.508;12.232;2023-02-02T01:37:14;67.70;;;45.47;;
14007;SDS011;61651;45.508;12.232;2023-02-02T01:40:16;78.37;;;46.73;;
14007;SDS011;61651;45.508;12.232;2023-02-02T01:43:20;73.87;;;49.77;;
14007;SDS011;61651;45.508;12.232;2023-02-02T01:46:26;81.47;;;51.17;;
14007;SDS011;61651;45.508;12.232;2023-02-02T01:49:28;78.73;;;49.17;;
14007;SDS011;61651;45.508;12.232;2023-02-02T01:52:31;74.90;;;49.43;;
14007;SDS011;61651;45.508;12.232;2023-02-02T01:55:34;84.67;;;49.07;;
14007;SDS011;61651;45.508;12.232;2023-02-02T01:58:39;77.00;;;46.40;;
14007;SDS011;61651;45.508;12.232;2023-02-02T02:01:44;75.87;;;46.30;;
14007;SDS011;61651;45.508;12.232;2023-02-02T02:04:48;74.60;;;46.67;;
14007;SDS011;61651;45.508;12.232;2023-02-02T02:07:51;75.50;;;48.37;;
14007;SDS011;61651;45.508;12.232;2023-02-02T02:10:56;76.90;;;48.87;;
14007;SDS011;61651;45.508;12.232;2023-02-02T02:13:59;80.40;;;50.70;;
14007;SDS011;61651;45.508;12.232;2023-02-02T02:17:26;82.93;;;49.67;;
14007;SDS011;61651;45.508;12.232;2023-02-02T02:28:49;82.80;;;50.70;;
14007;SDS011;61651;45.508;12.232;2023-02-02T02:32:14;83.17;;;51.70;;
14007;SDS011;61651;45.508;12.232;2023-02-02T02:35:28;94.20;;;53.60;;
14007;SDS011;61651;45.508;12.232;2023-02-02T02:38:34;79.90;;;50.53;;
14007;SDS011;61651;45.508;12.232;2023-02-02T02:41:42;75.77;;;48.33;;
14007;SDS011;61651;45.508;12.232;2023-02-02T02:44:49;76.43;;;48.23;;
14007;SDS011;61651;45.508;12.232;2023-02-02T02:47:54;75.67;;;48.77;;
14007;SDS011;61651;45.508;12.232;2023-02-02T02:51:04;73.73;;;48.70;;
14007;SDS011;61651;45.508;12.232;2023-02-02T02:54:07;82.57;;;49.33;;
14007;SDS011;61651;45.508;12.232;2023-02-02T02:57:13;81.13;;;50.37;;
14007;SDS011;61651;45.508;12.232;2023-02-02T03:00:45;81.10;;;50.07;;
14007;SDS011;61651;45.508;12.232;2023-02-02T03:03:56;80.33;;;48.83;;
14007;SDS011;61651;45.508;12.232;2023-02-02T03:07:09;79.37;;;48.80;;
14007;SDS011;61651;45.508;12.232;2023-02-02T03:10:16;77.23;;;49.53;;
14007;SDS011;61651;45.508;12.232;2023-02-02T03:13:21;70.27;;;48.33;;
14007;SDS011;61651;45.508;12.232;2023-02-02T03:16:24;75.17;;;47.63;;
14007;SDS011;61651;45.508;12.232;2023-02-02T03:19:27;73.33;;;47.73;;
14007;SDS011;61651;45.508;12.232;2023-02-02T03:22:30;79.57;;;49.60;;
14007;SDS011;61651;45.508;12.232;2023-02-02T03:25:32;75.10;;;47.30;;
14007;SDS011;61651;45.508;12.232;2023-02-02T03:28:34;72.27;;;46.30;;
14007;SDS011;61651;45.508;12.232;2023-02-02T03:31:36;68.87;;;44.67;;
14007;SDS011;61651;45.508;12.232;2023-02-02T03:34:39;74.67;;;48.90;;
14007;SDS011;61651;45.508;12.232;2023-02-02T03:37:41;67.17;;;45.03;;
14007;SDS011;61651;45.508;12.232;2023-02-02T03:40:43;74.90;;;47.67;;
14007;SDS011;61651;45.508;12.232;2023-02-02T03:43:45;80.20;;;48.63;;
14007;SDS011;61651;45.508;12.232;2023-02-02T03:46:47;70.20;;;46.47;;
14007;SDS011;61651;45.508;12.232;2023-02-02T03:49:54;74.03;;;46.03;;
14007;SDS011;61651;45.508;12.232;2023-02-02T03:52:56;74.57;;;49.00;;
14007;SDS011;61651;45.508;12.232;2023-02-02T03:55:58;78.47;;;48.93;;
14007;SDS011;61651;45.508;12.232;2023-02-02T03:59:00;70.57;;;45.47;;
14007;SDS011;61651;45.508;12.232;2023-02-02T04:02:02;78.70;;;48.37;;
14007;SDS011;61651;45.508;12.232;2023-02-02T04:05:05;69.47;;;46.77;;
14007;SDS011;61651;45.508;12.232;2023-02-02T04:08:08;69.83;;;42.43;;
14007;SDS011;61651;45.508;12.232;2023-02-02T04:11:10;74.00;;;44.60;;
14007;SDS011;61651;45.508;12.232;2023-02-02T04:14:12;67.40;;;45.83;;
14007;SDS011;61651;45.508;12.232;2023-02-02T04:17:14;69.77;;;43.60;;
14007;SDS011;61651;45.508;12.232;2023-02-02T04:20:18;72.63;;;46.37;;
14007;SDS011;61651;45.508;12.232;2023-02-02T04:23:20;82.60;;;46.83;;
14007;SDS011;61651;45.508;12.232;2023-02-02T04:26:22;72.93;;;43.90;;
14007;SDS011;61651;45.508;12.232;2023-02-02T04:29:25;77.53;;;44.67;;
14007;SDS011;61651;45.508;12.232;2023-02-02T04:32:27;64.97;;;42.80;;
14007;SDS011;61651;45.508;12.232;2023-02-02T04:35:30;69.87;;;43.50;;
14007;SDS011;61651;45.508;12.232;2023-02-02T04:38:32;72.13;;;44.03;;
14007;SDS011;61651;45.508;12.232;2023-02-02T04:41:34;69.80;;;42.70;;
14007;SDS011;61651;45.508;12.232;2023-02-02T04:44:36;71.53;;;45.63;;
14007;SDS011;61651;45.508;12.232;2023-02-02T04:47:38;66.10;;;41.87;;
14007;SDS011;61651;45.508;12.232;2023-02-02T04:50:42;65.47;;;44.37;;
14007;SDS011;61651;45.508;12.232;2023-02-02T04:53:44;70.30;;;45.50;;
14007;SDS011;61651;45.508;12.232;2023-02-02T04:56:46;62.67;;;42.73;;
14007;SDS011;61651;45.508;12.232;2023-02-02T04:59:48;66.17;;;42.90;;
14007;SDS011;61651;45.508;12.232;2023-02-02T05:02:50;67.80;;;42.33;;
14007;SDS011;61651;45.508;12.232;2023-02-02T05:06:00;73.43;;;45.17;;
14007;SDS011;61651;45.508;12.232;2023-02-02T05:09:03;70.63;;;42.40;;
14007;SDS011;61651;45.508;12.232;2023-02-02T05:12:05;69.10;;;43.03;;
14007;SDS011;61651;45.508;12.232;2023-02-02T05:15:07;71.10;;;43.67;;
14007;SDS011;61651;45.508;12.232;2023-02-02T05:18:10;67.37;;;41.90;;
14007;SDS011;61651;45.508;12.232;2023-02-02T05:21:13;69.73;;;43.03;;
14007;SDS011;61651;45.508;12.232;2023-02-02T05:24:15;70.50;;;43.27;;
14007;SDS011;61651;45.508;12.232;2023-02-02T05:27:17;71.87;;;43.60;;
14007;SDS011;61651;45.508;12.232;2023-02-02T05:30:19;65.63;;;42.90;;
14007;SDS011;61651;45.508;12.232;2023-02-02T05:33:21;75.27;;;45.07;;
14007;SDS011;61651;45.508;12.232;2023-02-02T05:36:25;72.27;;;43.97;;
14007;SDS011;61651;45.508;12.232;2023-02-02T05:39:27;69.33;;;43.20;;
14007;SDS011;61651;45.508;12.232;2023-02-02T05:42:29;66.03;;;42.53;;
14007;SDS011;61651;45.508;12.232;2023-02-02T05:45:31;66.07;;;41.97;;
14007;SDS011;61651;45.508;12.232;2023-02-02T05:48:33;63.17;;;41.30;;
14007;SDS011;61651;45.508;12.232;2023-02-02T05:51:37;63.13;;;42.17;;
14007;SDS011;61651;45.508;12.232;2023-02-02T05:54:43;71.37;;;42.57;;
14007;SDS011;61651;45.508;12.232;2023-02-02T05:57:45;71.53;;;41.33;;
14007;SDS011;61651;45.508;12.232;2023-02-02T06:00:47;73.03;;;42.83;;
14007;SDS011;61651;45.508;12.232;2023-02-02T06:03:49;66.73;;;44.33;;
14007;SDS011;61651;45.508;12.232;2023-02-02T06:07:02;85.94;;;53.05;;
14007;SDS011;61651;45.508;12.232;2023-02-02T06:10:04;69.03;;;46.27;;
14007;SDS011;61651;45.508;12.232;2023-02-02T06:13:07;66.57;;;41.37;;
14007;SDS011;61651;45.508;12.232;2023-02-02T06:16:09;65.60;;;44.17;;
14007;SDS011;61651;45.508;12.232;2023-02-02T06:19:11;66.67;;;41.63;;
14007;SDS011;61651;45.508;12.232;2023-02-02T06:22:15;66.80;;;39.77;;
14007;SDS011;61651;45.508;12.232;2023-02-02T06:25:16;65.97;;;42.57;;
14007;SDS011;61651;45.508;12.232;2023-02-02T06:28:18;61.60;;;42.60;;
14007;SDS011;61651;45.508;12.232;2023-02-02T06:31:21;71.13;;;42.80;;
14007;SDS011;61651;45.508;12.232;2023-02-02T06:34:23;72.80;;;44.67;;
14007;SDS011;61651;45.508;12.232;2023-02-02T06:37:26;66.80;;;42.83;;
14007;SDS011;61651;45.508;12.232;2023-02-02T06:40:28;75.83;;;46.17;;
14007;SDS011;61651;45.508;12.232;2023-02-02T06:43:30;73.40;;;45.13;;
14007;SDS011;61651;45.508;12.232;2023-02-02T06:46:32;69.17;;;42.63;;
14007;SDS011;61651;45.508;12.232;2023-02-02T06:49:34;73.47;;;44.13;;
14007;SDS011;61651;45.508;12.232;2023-02-02T06:52:38;71.57;;;43.63;;
14007;SDS011;61651;45.508;12.232;2023-02-02T06:55:40;69.10;;;42.07;;
14007;SDS011;61651;45.508;12.232;2023-02-02T06:58:42;67.70;;;41.77;;
14007;SDS011;61651;45.508;12.232;2023-02-02T07:01:43;69.40;;;42.60;;
14007;SDS011;61651;45.508;12.232;2023-02-02T07:04:45;74.73;;;47.73;;
14007;SDS011;61651;45.508;12.232;2023-02-02T07:07:49;70.93;;;44.17;;
14007;SDS011;61651;45.508;12.232;2023-02-02T07:10:51;69.30;;;42.57;;
14007;SDS011;61651;45.508;12.232;2023-02-02T07:13:53;68.60;;;41.87;;
14007;SDS011;61651;45.508;12.232;2023-02-02T07:16:55;68.73;;;42.17;;
14007;SDS011;61651;45.508;12.232;2023-02-02T07:19:57;65.73;;;42.07;;
14007;SDS011;61651;45.508;12.232;2023-02-02T07:23:00;69.33;;;44.10;;
14007;SDS011;61651;45.508;12.232;2023-02-02T07:26:04;67.93;;;43.20;;
14007;SDS011;61651;45.508;12.232;2023-02-02T07:29:07;60.77;;;41.83;;
14007;SDS011;61651;45.508;12.232;2023-02-02T07:32:12;76.50;;;44.53;;
14007;SDS011;61651;45.508;12.232;2023-02-02T07:35:14;69.23;;;43.40;;
14007;SDS011;61651;45.508;12.232;2023-02-02T07:38:17;73.40;;;43.60;;
14007;SDS011;61651;45.508;12.232;2023-02-02T07:41:20;65.87;;;42.10;;
14007;SDS011;61651;45.508;12.232;2023-02-02T07:44:22;67.43;;;44.37;;
14007;SDS011;61651;45.508;12.232;2023-02-02T07:47:24;69.73;;;42.63;;
14007;SDS011;61651;45.508;12.232;2023-02-02T07:50:26;68.27;;;45.30;;
14007;SDS011;61651;45.508;12.232;2023-02-02T07:53:31;64.97;;;41.63;;
14007;SDS011;61651;45.508;12.232;2023-02-02T07:56:33;67.13;;;39.50;;
14007;SDS011;61651;45.508;12.232;2023-02-02T07:59:37;67.10;;;41.50;;
14007;SDS011;61651;45.508;12.232;2023-02-02T08:02:39;64.67;;;42.00;;
14007;SDS011;61651;45.508;12.232;2023-02-02T08:05:41;66.40;;;42.73;;
14007;SDS011;61651;45.508;12.232;2023-02-02T08:08:44;72.23;;;44.37;;
14007;SDS011;61651;45.508;12.232;2023-02-02T08:11:47;70.70;;;42.53;;
14007;SDS011;61651;45.508;12.232;2023-02-02T08:14:49;70.40;;;43.03;;
14007;SDS011;61651;45.508;12.232;2023-02-02T08:17:51;68.13;;;45.43;;
14007;SDS011;61651;45.508;12.232;2023-02-02T08:20:53;65.83;;;41.50;;
14007;SDS011;61651;45.508;12.232;2023-02-02T08:24:00;69.40;;;43.73;;
14007;SDS011;61651;45.508;12.232;2023-02-02T08:27:03;70.13;;;43.87;;
14007;SDS011;61651;45.508;12.232;2023-02-02T08:30:05;74.40;;;45.40;;
14007;SDS011;61651;45.508;12.232;2023-02-02T08:33:08;76.47;;;47.03;;
14007;SDS011;61651;45.508;12.232;2023-02-02T08:36:11;75.20;;;47.37;;
14007;SDS011;61651;45.508;12.232;2023-02-02T08:39:15;77.33;;;44.87;;
14007;SDS011;61651;45.508;12.232;2023-02-02T08:42:17;73.97;;;46.23;;
14007;SDS011;61651;45.508;12.232;2023-02-02T08:45:19;73.53;;;46.23;;
14007;SDS011;61651;45.508;12.232;2023-02-02T08:48:21;72.90;;;45.27;;
14007;SDS011;61651;45.508;12.232;2023-02-02T08:51:23;79.90;;;48.87;;
14007;SDS011;61651;45.508;12.232;2023-02-02T08:54:26;71.43;;;45.27;;
14007;SDS011;61651;45.508;12.232;2023-02-02T08:57:28;69.77;;;46.27;;
14007;SDS011;61651;45.508;12.232;2023-02-02T09:00:31;66.43;;;42.13;;
14007;SDS011;61651;45.508;12.232;2023-02-02T09:03:33;72.00;;;44.47;;
14007;SDS011;61651;45.508;12.232;2023-02-02T09:06:38;74.17;;;44.53;;
14007;SDS011;61651;45.508;12.232;2023-02-02T09:09:42;72.27;;;44.83;;
14007;SDS011;61651;45.508;12.232;2023-02-02T09:12:44;69.27;;;47.03;;
14007;SDS011;61651;45.508;12.232;2023-02-02T09:15:46;78.17;;;48.60;;
14007;SDS011;61651;45.508;12.232;2023-02-02T09:18:48;81.15;;;59.58;;
14007;SDS011;61651;45.508;12.232;2023-02-02T09:21:50;77.40;;;51.30;;
14007;SDS011;61651;45.508;12.232;2023-02-02T09:24:53;73.90;;;50.40;;
14007;SDS011;61651;45.508;12.232;2023-02-02T09:27:55;73.23;;;48.23;;
14007;SDS011;61651;45.508;12.232;2023-02-02T09:30:59;70.97;;;44.43;;
14007;SDS011;61651;45.508;12.232;2023-02-02T09:34:01;70.67;;;46.37;;
14007;SDS011;61651;45.508;12.232;2023-02-02T09:37:04;72.70;;;45.63;;
14007;SDS011;61651;45.508;12.232;2023-02-02T09:40:09;73.97;;;52.83;;
14007;SDS011;61651;45.508;12.232;2023-02-02T09:43:23;71.77;;;48.37;;
14007;SDS011;61651;45.508;12.232;2023-02-02T09:46:38;77.40;;;48.73;;
14007;SDS011;61651;45.508;12.232;2023-02-02T09:49:50;67.50;;;47.63;;
14007;SDS011;61651;45.508;12.232;2023-02-02T09:53:00;76.40;;;47.50;;
14007;SDS011;61651;45.508;12.232;2023-02-02T09:56:07;68.70;;;47.20;;
14007;SDS011;61651;45.508;12.232;2023-02-02T09:59:19;78.10;;;49.60;;
14007;SDS011;61651;45.508;12.232;2023-02-02T10:02:23;77.63;;;50.13;;
14007;SDS011;61651;45.508;12.232;2023-02-02T10:05:34;75.90;;;48.67;;
14007;SDS011;61651;45.508;12.232;2023-02-02T10:08:45;82.50;;;50.07;;
14007;SDS011;61651;45.508;12.232;2023-02-02T10:11:55;71.93;;;48.20;;
14007;SDS011;61651;45.508;12.232;2023-02-02T10:15:07;82.07;;;53.92;;
14007;SDS011;61651;45.508;12.232;2023-02-02T10:18:18;82.50;;;49.67;;
14007;SDS011;61651;45.508;12.232;2023-02-02T10:21:25;75.47;;;49.50;;
14007;SDS011;61651;45.508;12.232;2023-02-02T10:24:33;75.30;;;50.90;;
14007;SDS011;61651;45.508;12.232;2023-02-02T10:27:38;79.47;;;51.10;;
14007;SDS011;61651;45.508;12.232;2023-02-02T10:30:42;77.97;;;50.70;;
14007;SDS011;61651;45.508;12.232;2023-02-02T10:33:48;84.93;;;59.75;;
14007;SDS011;61651;45.508;12.232;2023-02-02T10:37:06;83.20;;;55.00;;
14007;SDS011;61651;45.508;12.232;2023-02-02T10:40:19;81.70;;;55.77;;
14007;SDS011;61651;45.508;12.232;2023-02-02T10:43:40;83.73;;;56.40;;
14007;SDS011;61651;45.508;12.232;2023-02-02T10:47:05;80.73;;;51.03;;
14007;SDS011;61651;45.508;12.232;2023-02-02T10:50:15;87.13;;;55.80;;
14007;SDS011;61651;45.508;12.232;2023-02-02T10:53:19;83.57;;;54.60;;
14007;SDS011;61651;45.508;12.232;2023-02-02T10:56:28;87.30;;;57.80;;
14007;SDS011;61651;45.508;12.232;2023-02-02T10:59:40;90.07;;;56.93;;
14007;SDS011;61651;45.508;12.232;2023-02-02T11:02:46;97.80;;;67.60;;
14007;SDS011;61651;45.508;12.232;2023-02-02T11:05:48;86.50;;;56.53;;
14007;SDS011;61651;45.508;12.232;2023-02-02T11:09:08;84.93;;;56.33;;
14007;SDS011;61651;45.508;12.232;2023-02-02T11:12:15;86.07;;;55.03;;
14007;SDS011;61651;45.508;12.232;2023-02-02T11:15:24;84.27;;;54.27;;
14007;SDS011;61651;45.508;12.232;2023-02-02T11:18:28;91.17;;;58.93;;
14007;SDS011;61651;45.508;12.232;2023-02-02T11:21:31;85.17;;;51.30;;
14007;SDS011;61651;45.508;12.232;2023-02-02T11:24:38;81.57;;;51.37;;
14007;SDS011;61651;45.508;12.232;2023-02-02T11:27:45;86.67;;;54.53;;
14007;SDS011;61651;45.508;12.232;2023-02-02T11:30:49;86.87;;;52.37;;
14007;SDS011;61651;45.508;12.232;2023-02-02T11:33:52;85.23;;;55.47;;
14007;SDS011;61651;45.508;12.232;2023-02-02T11:37:11;84.90;;;55.60;;
14007;SDS011;61651;45.508;12.232;2023-02-02T11:40:17;86.10;;;55.10;;
14007;SDS011;61651;45.508;12.232;2023-02-02T11:43:28;83.53;;;53.00;;
14007;SDS011;61651;45.508;12.232;2023-02-02T11:46:36;85.70;;;55.40;;
14007;SDS011;61651;45.508;12.232;2023-02-02T11:49:40;86.63;;;55.70;;
14007;SDS011;61651;45.508;12.232;2023-02-02T11:52:43;89.40;;;62.50;;
14007;SDS011;61651;45.508;12.232;2023-02-02T11:55:46;82.70;;;54.67;;
14007;SDS011;61651;45.508;12.232;2023-02-02T11:58:48;90.70;;;55.13;;
14007;SDS011;61651;45.508;12.232;2023-02-02T12:02:06;87.67;;;55.83;;
14007;SDS011;61651;45.508;12.232;2023-02-02T12:05:34;82.67;;;52.77;;
14007;SDS011;61651;45.508;12.232;2023-02-02T12:08:37;84.93;;;54.20;;
14007;SDS011;61651;45.508;12.232;2023-02-02T12:11:41;84.20;;;55.53;;
14007;SDS011;61651;45.508;12.232;2023-02-02T12:14:52;84.47;;;53.50;;
14007;SDS011;61651;45.508;12.232;2023-02-02T12:18:03;82.70;;;55.03;;
14007;SDS011;61651;45.508;12.232;2023-02-02T12:21:20;81.80;;;53.53;;
14007;SDS011;61651;45.508;12.232;2023-02-02T12:24:32;84.90;;;55.33;;
14007;SDS011;61651;45.508;12.232;2023-02-02T12:27:38;90.57;;;58.10;;
14007;SDS011;61651;45.508;12.232;2023-02-02T12:30:49;80.40;;;53.90;;
14007;SDS011;61651;45.508;12.232;2023-02-02T12:34:00;91.67;;;55.27;;
14007;SDS011;61651;45.508;12.232;2023-02-02T12:37:11;89.77;;;54.67;;
14007;SDS011;61651;45.508;12.232;2023-02-02T12:40:25;86.57;;;52.77;;
14007;SDS011;61651;45.508;12.232;2023-02-02T12:43:40;72.37;;;51.27;;
14007;SDS011;61651;45.508;12.232;2023-02-02T12:46:49;82.43;;;53.70;;
14007;SDS011;61651;45.508;12.232;2023-02-02T12:50:11;74.07;;;51.60;;
14007;SDS011;61651;45.508;12.232;2023-02-02T12:53:31;72.50;;;51.40;;
14007;SDS011;61651;45.508;12.232;2023-02-02T12:56:41;70.47;;;55.35;;
14007;SDS011;61651;45.508;12.232;2023-02-02T12:59:58;78.97;;;54.80;;
14007;SDS011;61651;45.508;12.232;2023-02-02T13:03:29;81.60;;;53.10;;
14007;SDS011;61651;45.508;12.232;2023-02-02T13:07:01;71.67;;;51.17;;
14007;SDS011;61651;45.508;12.232;2023-02-02T13:10:15;76.30;;;51.53;;
14007;SDS011;61651;45.508;12.232;2023-02-02T13:13:22;77.20;;;51.93;;
14007;SDS011;61651;45.508;12.232;2023-02-02T13:16:27;77.40;;;51.27;;
14007;SDS011;61651;45.508;12.232;2023-02-02T13:19:33;77.73;;;51.00;;
14007;SDS011;61651;45.508;12.232;2023-02-02T13:22:39;79.70;;;59.65;;
14007;SDS011;61651;45.508;12.232;2023-02-02T13:25:43;76.57;;;53.70;;
14007;SDS011;61651;45.508;12.232;2023-02-02T13:28:50;74.17;;;51.33;;
14007;SDS011;61651;45.508;12.232;2023-02-02T13:31:58;81.97;;;56.00;;
14007;SDS011;61651;45.508;12.232;2023-02-02T13:35:05;78.33;;;55.97;;
14007;SDS011;61651;45.508;12.232;2023-02-02T13:38:18;77.20;;;53.60;;
14007;SDS011;61651;45.508;12.232;2023-02-02T13:41:23;79.67;;;55.70;;
14007;SDS011;61651;45.508;12.232;2023-02-02T13:44:27;80.60;;;53.53;;
14007;SDS011;61651;45.508;12.232;2023-02-02T13:47:36;75.47;;;53.10;;
14007;SDS011;61651;45.508;12.232;2023-02-02T13:50:46;80.00;;;58.33;;
14007;SDS011;61651;45.508;12.232;2023-02-02T13:54:06;77.83;;;55.63;;
14007;SDS011;61651;45.508;12.232;2023-02-02T13:57:42;81.10;;;53.33;;
14007;SDS011;61651;45.508;12.232;2023-02-02T14:00:59;79.57;;;57.30;;
14007;SDS011;61651;45.508;12.232;2023-02-02T14:04:15;76.23;;;52.83;;
14007;SDS011;61651;45.508;12.232;2023-02-02T14:07:26;76.40;;;51.17;;
14007;SDS011;61651;45.508;12.232;2023-02-02T14:10:35;80.73;;;52.87;;
14007;SDS011;61651;45.508;12.232;2023-02-02T14:13:41;80.37;;;52.27;;
14007;SDS011;61651;45.508;12.232;2023-02-02T14:17:03;81.22;;;57.30;;
14007;SDS011;61651;45.508;12.232;2023-02-02T14:20:11;80.35;;;54.97;;
14007;SDS011;61651;45.508;12.232;2023-02-02T14:23:49;78.50;;;55.38;;
14007;SDS011;61651;45.508;12.232;2023-02-02T14:26:55;78.75;;;55.08;;
14007;SDS011;61651;45.508;12.232;2023-02-02T14:29:57;82.50;;;57.17;;
14007;SDS011;61651;45.508;12.232;2023-02-02T14:36:25;83.80;;;56.53;;
14007;SDS011;61651;45.508;12.232;2023-02-02T14:39:29;77.60;;;55.80;;
14007;SDS011;61651;45.508;12.232;2023-02-02T14:42:40;79.78;;;55.20;;
14007;SDS011;61651;45.508;12.232;2023-02-02T14:46:31;80.45;;;54.90;;
14007;SDS011;61651;45.508;12.232;2023-02-02T14:49:34;76.68;;;54.42;;
14007;SDS011;61651;45.508;12.232;2023-02-02T14:52:37;76.00;;;51.53;;
14007;SDS011;61651;45.508;12.232;2023-02-02T14:55:48;77.00;;;54.80;;
14007;SDS011;61651;45.508;12.232;2023-02-02T14:58:57;78.40;;;55.13;;
14007;SDS011;61651;45.508;12.232;2023-02-02T15:02:05;90.37;;;59.57;;
14007;SDS011;61651;45.508;12.232;2023-02-02T15:05:34;80.70;;;56.08;;
14007;SDS011;61651;45.508;12.232;2023-02-02T15:08:39;81.70;;;56.27;;
14007;SDS011;61651;45.508;12.232;2023-02-02T15:15:24;90.03;;;57.00;;
14007;SDS011;61651;45.508;12.232;2023-02-02T15:18:31;83.90;;;56.37;;
14007;SDS011;61651;45.508;12.232;2023-02-02T15:21:39;82.50;;;57.13;;
14007;SDS011;61651;45.508;12.232;2023-02-02T15:24:42;80.40;;;56.60;;
14007;SDS011;61651;45.508;12.232;2023-02-02T15:27:49;84.70;;;60.43;;
14007;SDS011;61651;45.508;12.232;2023-02-02T15:31:11;84.73;;;59.00;;
14007;SDS011;61651;45.508;12.232;2023-02-02T15:34:18;93.90;;;59.73;;
14007;SDS011;61651;45.508;12.232;2023-02-02T15:37:24;91.60;;;57.37;;
14007;SDS011;61651;45.508;12.232;2023-02-02T15:40:30;87.37;;;58.83;;
14007;SDS011;61651;45.508;12.232;2023-02-02T15:43:33;88.27;;;56.97;;
14007;SDS011;61651;45.508;12.232;2023-02-02T15:46:37;90.90;;;58.40;;
14007;SDS011;61651;45.508;12.232;2023-02-02T15:49:39;88.27;;;58.33;;
14007;SDS011;61651;45.508;12.232;2023-02-02T15:52:43;85.83;;;57.87;;
14007;SDS011;61651;45.508;12.232;2023-02-02T15:55:51;89.40;;;57.83;;
14007;SDS011;61651;45.508;12.232;2023-02-02T15:58:53;89.60;;;56.87;;
14007;SDS011;61651;45.508;12.232;2023-02-02T16:02:02;89.53;;;59.77;;
14007;SDS011;61651;45.508;12.232;2023-02-02T16:05:22;94.57;;;54.93;;
14007;SDS011;61651;45.508;12.232;2023-02-02T16:08:26;86.60;;;57.73;;
14007;SDS011;61651;45.508;12.232;2023-02-02T16:11:33;89.17;;;59.33;;
14007;SDS011;61651;45.508;12.232;2023-02-02T16:14:42;84.77;;;59.27;;
14007;SDS011;61651;45.508;12.232;2023-02-02T16:17:57;82.03;;;56.00;;
14007;SDS011;61651;45.508;12.232;2023-02-02T16:21:00;90.63;;;58.83;;
14007;SDS011;61651;45.508;12.232;2023-02-02T16:24:10;87.37;;;59.20;;
14007;SDS011;61651;45.508;12.232;2023-02-02T16:27:17;81.30;;;57.10;;
14007;SDS011;61651;45.508;12.232;2023-02-02T16:30:22;89.57;;;56.97;;
14007;SDS011;61651;45.508;12.232;2023-02-02T16:33:33;90.00;;;58.90;;
14007;SDS011;61651;45.508;12.232;2023-02-02T16:36:39;95.73;;;59.97;;
14007;SDS011;61651;45.508;12.232;2023-02-02T16:39:41;95.00;;;59.90;;
14007;SDS011;61651;45.508;12.232;2023-02-02T16:42:42;89.47;;;59.37;;
14007;SDS011;61651;45.508;12.232;2023-02-02T16:45:45;96.17;;;59.73;;
14007;SDS011;61651;45.508;12.232;2023-02-02T16:48:55;94.80;;;59.80;;
14007;SDS011;61651;45.508;12.232;2023-02-02T16:52:06;95.27;;;60.17;;
14007;SDS011;61651;45.508;12.232;2023-02-02T16:55:14;88.63;;;58.00;;
14007;SDS011;61651;45.508;12.232;2023-02-02T16:58:18;83.87;;;57.80;;
14007;SDS011;61651;45.508;12.232;2023-02-02T17:01:29;88.97;;;58.27;;
14007;SDS011;61651;45.508;12.232;2023-02-02T17:04:37;101.30;;;59.70;;
14007;SDS011;61651;45.508;12.232;2023-02-02T17:07:39;84.27;;;57.30;;
14007;SDS011;61651;45.508;12.232;2023-02-02T17:10:48;95.10;;;59.80;;
14007;SDS011;61651;45.508;12.232;2023-02-02T17:14:06;92.00;;;59.37;;
14007;SDS011;61651;45.508;12.232;2023-02-02T17:17:19;91.93;;;59.53;;
14007;SDS011;61651;45.508;12.232;2023-02-02T17:20:23;93.93;;;62.07;;
14007;SDS011;61651;45.508;12.232;2023-02-02T17:23:26;90.77;;;59.13;;
14007;SDS011;61651;45.508;12.232;2023-02-02T17:26:29;95.50;;;63.33;;
14007;SDS011;61651;45.508;12.232;2023-02-02T17:29:31;89.50;;;60.90;;
14007;SDS011;61651;45.508;12.232;2023-02-02T17:32:34;96.70;;;66.33;;
14007;SDS011;61651;45.508;12.232;2023-02-02T17:35:37;100.43;;;68.43;;
14007;SDS011;61651;45.508;12.232;2023-02-02T17:38:39;96.23;;;64.30;;
14007;SDS011;61651;45.508;12.232;2023-02-02T17:41:41;98.57;;;64.90;;
14007;SDS011;61651;45.508;12.232;2023-02-02T17:44:46;99.97;;;63.20;;
14007;SDS011;61651;45.508;12.232;2023-02-02T17:47:48;99.50;;;62.33;;
14007;SDS011;61651;45.508;12.232;2023-02-02T17:50:51;91.50;;;62.37;;
14007;SDS011;61651;45.508;12.232;2023-02-02T17:53:53;95.07;;;61.23;;
14007;SDS011;61651;45.508;12.232;2023-02-02T17:56:58;97.63;;;63.20;;
14007;SDS011;61651;45.508;12.232;2023-02-02T18:00:04;92.90;;;61.40;;
14007;SDS011;61651;45.508;12.232;2023-02-02T18:03:08;97.80;;;62.47;;
14007;SDS011;61651;45.508;12.232;2023-02-02T18:06:17;94.00;;;62.40;;
14007;SDS011;61651;45.508;12.232;2023-02-02T18:09:21;92.47;;;60.03;;